Time;durP1;ratioP1;P1;durP2;ratioP2;P2;SDS_P1;SDS_P2;PMS_P1;PMS_P2;Temp;Humidity;BMP_temperature;BMP_pressure;BME280_temperature;BME280_humidity;BME280_pressure;Samples;Min_cycle;Max_cycle;Signal;HPM_P1;HPM_P2
2022/04/10 00:00:53;;;;;;;7.57;2.10;;;;;;;0.66;100.00;100041.50;5075205;28;20017;-84
2022/04/10 00:03:19;;;;;;;12.43;2.70;;;;;;;0.68;100.00;100036.25;5075509;28;20106;-84
2022/04/10 00:05:45;;;;;;;5.50;1.90;;;;;;;0.64;100.00;100038.00;5075477;28;20025;-84
2022/04/10 00:08:10;;;;;;;8.40;2.22;;;;;;;0.60;100.00;100038.81;5076680;28;20080;-83
2022/04/10 00:10:35;;;;;;;12.32;3.85;;;;;;;0.55;100.00;100044.94;5075181;28;20077;-84
2022/04/10 00:13:01;;;;;;;7.75;2.65;;;;;;;0.50;100.00;100044.00;5077166;28;20020;-83
2022/04/10 00:15:27;;;;;;;12.32;2.10;;;;;;;0.54;100.00;100045.78;5075015;28;20021;-84
2022/04/10 00:17:53;;;;;;;10.18;2.55;;;;;;;0.49;100.00;100039.63;5075518;28;20025;-84
2022/04/10 00:20:18;;;;;;;6.00;1.83;;;;;;;0.51;100.00;100044.91;5076445;28;20420;-84
2022/04/10 00:22:45;;;;;;;8.85;2.53;;;;;;;0.38;100.00;100041.28;5075017;28;20496;-84
2022/04/10 00:25:13;;;;;;;7.57;1.95;;;;;;;0.47;100.00;100041.34;5076528;28;20070;-84
2022/04/10 00:27:40;;;;;;;6.10;1.88;;;;;;;0.43;100.00;100040.47;5076694;28;20020;-82
2022/04/10 00:30:06;;;;;;;8.32;2.28;;;;;;;0.44;100.00;100043.94;5076189;28;20036;-82
2022/04/10 00:32:32;;;;;;;12.07;2.30;;;;;;;0.48;100.00;100039.63;5074801;28;20024;-84
2022/04/10 00:34:57;;;;;;;6.20;2.60;;;;;;;0.38;100.00;100046.53;5074718;28;20366;-83
2022/04/10 00:37:22;;;;;;;7.05;2.53;;;;;;;0.33;100.00;100041.25;5075789;28;20059;-83
2022/04/10 00:39:49;;;;;;;8.10;2.65;;;;;;;0.29;100.00;100048.22;5075324;28;20401;-84
2022/04/10 00:42:15;;;;;;;12.80;2.50;;;;;;;0.31;100.00;100043.84;5074125;28;20020;-84
2022/04/10 00:44:40;;;;;;;9.00;3.00;;;;;;;0.25;100.00;100049.06;5075239;28;20078;-83
2022/04/10 00:47:06;;;;;;;6.18;2.10;;;;;;;0.29;100.00;100047.34;5076202;28;20024;-84
2022/04/10 00:49:31;;;;;;;8.07;2.40;;;;;;;0.37;100.00;100050.03;5075582;28;20028;-85
2022/04/10 00:51:59;;;;;;;6.15;2.13;;;;;;;0.29;100.00;100061.34;5075686;28;20032;-83
2022/04/10 00:54:25;;;;;;;7.07;2.17;;;;;;;0.37;100.00;100064.06;5074375;28;20021;-83
2022/04/10 00:56:51;;;;;;;6.93;2.47;;;;;;;0.32;100.00;100066.66;5074205;28;20024;-84
2022/04/10 00:59:16;;;;;;;5.57;1.80;;;;;;;0.31;100.00;100062.25;5074006;28;20496;-84
2022/04/10 01:01:47;;;;;;;12.02;2.20;;;;;;;0.38;100.00;100068.44;5074136;28;20435;-85
2022/04/10 01:04:13;;;;;;;9.60;2.42;;;;;;;0.37;100.00;100063.16;5075320;28;20477;-84
2022/04/10 01:06:39;;;;;;;7.13;2.42;;;;;;;0.29;100.00;100061.34;5074041;28;20397;-83
2022/04/10 01:09:05;;;;;;;8.15;2.80;;;;;;;0.27;100.00;100067.47;5074222;28;20409;-83
2022/04/10 01:11:32;;;;;;;9.10;2.22;;;;;;;0.30;100.00;100072.75;5074626;28;20020;-83
2022/04/10 01:13:57;;;;;;;7.50;1.73;;;;;;;0.35;100.00;100070.16;5074373;28;20039;-83
2022/04/10 01:16:23;;;;;;;5.60;2.20;;;;;;;0.28;100.00;100075.38;5075439;28;20020;-83
2022/04/10 01:18:50;;;;;;;9.00;2.92;;;;;;;0.26;100.00;100087.59;5074928;28;20026;-82
2022/04/10 01:21:23;;;;;;;6.68;2.20;;;;;;;0.38;100.00;100080.69;5075400;28;20389;-84
2022/04/10 01:23:53;;;;;;;8.07;1.98;;;;;;;0.32;100.00;100077.16;5077159;28;20504;-85
2022/04/10 01:26:20;;;;;;;5.13;2.15;;;;;;;0.37;100.00;100081.56;5073942;28;20033;-83
2022/04/10 01:28:56;;;;;;;10.52;2.33;;;;;;;0.44;100.00;100079.00;5073381;28;20123;-84
2022/04/10 01:31:21;;;;;;;7.50;2.40;;;;;;;0.46;100.00;100084.28;5073549;28;20028;-84
2022/04/10 01:33:47;;;;;;;10.73;2.10;;;;;;;0.49;100.00;100079.03;5073712;28;20496;-85
2022/04/10 01:36:12;;;;;;;7.32;2.13;;;;;;;0.53;100.00;100080.84;5075798;28;20025;-84
2022/04/10 01:38:38;;;;;;;15.23;2.30;;;;;;;0.53;100.00;100079.94;5073574;28;20055;-83
2022/04/10 01:41:03;;;;;;;8.88;2.10;;;;;;;0.51;100.00;100077.31;5073197;28;20505;-84
2022/04/10 01:43:28;;;;;;;18.15;2.45;;;;;;;0.50;100.00;100078.16;5073499;28;20101;-84
2022/04/10 01:45:54;;;;;;;7.00;2.25;;;;;;;0.49;100.00;100073.78;5073416;28;20035;-81
2022/04/10 01:48:19;;;;;;;6.43;2.40;;;;;;;0.54;100.00;100085.19;5073278;28;20615;-84
2022/04/10 01:50:44;;;;;;;10.23;2.75;;;;;;;0.63;100.00;100088.78;5074364;28;20031;-84
2022/04/10 01:53:10;;;;;;;8.82;1.92;;;;;;;0.59;100.00;100089.63;5072299;28;20119;-84
2022/04/10 01:55:35;;;;;;;4.68;2.10;;;;;;;0.59;100.00;100084.38;5074691;28;20063;-84
2022/04/10 01:58:00;;;;;;;6.25;2.85;;;;;;;0.59;100.00;100089.63;5073295;28;20424;-83
2022/04/10 02:00:25;;;;;;;8.73;2.47;;;;;;;0.43;100.00;100079.88;5075295;28;20025;-84
2022/04/10 02:02:51;;;;;;;7.03;2.22;;;;;;;0.40;100.00;100078.97;5073008;28;20106;-84
2022/04/10 02:05:16;;;;;;;8.20;2.22;;;;;;;0.51;100.00;100076.44;5072816;28;20085;-84
2022/04/10 02:07:41;;;;;;;7.10;2.15;;;;;;;0.57;100.00;100075.59;5073193;28;20032;-83
2022/04/10 02:10:07;;;;;;;10.65;2.38;;;;;;;0.47;100.00;100079.88;5072792;28;20024;-83
2022/04/10 02:12:33;;;;;;;14.15;2.78;;;;;;;0.47;100.00;100072.88;5074079;28;20394;-84
2022/04/10 02:14:59;;;;;;;12.80;3.17;;;;;;;0.46;100.00;100083.38;5073547;28;20380;-84
2022/04/10 02:17:25;;;;;;;8.30;2.83;;;;;;;0.35;100.00;100073.66;5074051;28;20025;-84
2022/04/10 02:19:50;;;;;;;3.17;1.80;;;;;;;0.35;100.00;100083.28;5073957;28;20103;-83
2022/04/10 02:22:15;;;;;;;8.50;2.60;;;;;;;0.25;100.00;100075.34;5072546;28;20048;-84
2022/04/10 02:24:41;;;;;;;6.43;2.50;;;;;;;0.21;100.00;100078.78;5072626;28;20048;-84
2022/04/10 02:27:06;;;;;;;6.30;3.08;;;;;;;0.26;100.00;100077.09;5072581;28;20021;-83
2022/04/10 02:29:31;;;;;;;7.82;2.70;;;;;;;0.18;100.00;100090.13;5073149;28;20020;-83
2022/04/10 02:31:57;;;;;;;5.18;2.40;;;;;;;0.17;100.00;100082.25;5072992;28;20077;-84
2022/04/10 02:34:23;;;;;;;9.35;2.53;;;;;;;0.12;100.00;100083.97;5073722;28;20090;-84
2022/04/10 02:36:49;;;;;;;15.35;3.45;;;;;;;0.07;100.00;100087.44;5074301;28;20020;-84
2022/04/10 02:39:14;;;;;;;7.20;3.03;;;;;;;0.06;100.00;100085.66;5074410;28;20031;-83
2022/04/10 02:41:39;;;;;;;8.27;2.85;;;;;;;0.07;100.00;100091.78;5073760;28;20119;-83
2022/04/10 02:44:05;;;;;;;12.80;4.03;;;;;;;0.06;100.00;100085.66;5072286;28;20099;-81
2022/04/10 02:46:30;;;;;;;4.60;2.35;;;;;;;0.20;100.00;100090.19;5073231;28;20093;-83
2022/04/10 02:48:56;;;;;;;8.52;2.70;;;;;;;0.14;100.00;100084.84;5072095;28;20039;-82
2022/04/10 02:51:21;;;;;;;10.73;2.55;;;;;;;-0.05;100.00;100084.69;5072370;28;20435;-84
2022/04/10 02:53:46;;;;;;;5.95;2.40;;;;;;;0.04;100.00;100095.28;5073711;28;20024;-84
2022/04/10 02:56:11;;;;;;;11.55;2.70;;;;;;;0.00;100.00;100093.50;5072431;28;20031;-83
2022/04/10 02:58:37;;;;;;;8.45;2.42;;;;;;;0.01;100.00;100092.59;5072889;28;20040;-85
2022/04/10 03:01:02;;;;;;;9.18;2.70;;;;;;;-0.03;100.00;100106.56;5072015;28;20031;-84
2022/04/10 03:03:27;;;;;;;10.43;3.00;;;;;;;0.05;100.00;100098.78;5073100;28;20485;-84
2022/04/10 03:05:53;;;;;;;13.32;2.75;;;;;;;-0.15;100.00;100102.94;5078891;28;20496;-83
2022/04/10 03:08:19;;;;;;;7.68;2.25;;;;;;;-0.17;100.00;100104.69;5078929;28;20024;-84
2022/04/10 03:10:44;;;;;;;9.13;2.95;;;;;;;-0.22;100.00;100101.13;5080438;28;20053;-85
2022/04/10 03:13:09;;;;;;;12.27;3.35;;;;;;;-0.20;100.00;100102.00;5078706;28;20028;-83
2022/04/10 03:15:35;;;;;;;13.52;3.33;;;;;;;-0.22;100.00;100106.38;5078667;28;20024;-84
2022/04/10 03:18:01;;;;;;;11.43;2.50;;;;;;;-0.19;100.00;100111.66;5079015;28;20366;-84
2022/04/10 03:20:28;;;;;;;10.57;2.88;;;;;;;-0.26;100.00;100109.81;5080161;28;20032;-84
2022/04/10 03:22:55;;;;;;;8.27;2.65;;;;;;;-0.39;100.00;100107.06;5079343;28;20024;-83
2022/04/10 03:25:20;;;;;;;11.35;3.15;;;;;;;-0.36;100.00;100108.84;5080176;28;20028;-85
2022/04/10 03:27:45;;;;;;;9.75;3.38;;;;;;;-0.37;100.00;100107.06;5082605;28;20047;-86
2022/04/10 03:30:12;;;;;;;6.45;2.90;;;;;;;-0.38;100.00;100111.44;5082133;28;20029;-85
2022/04/10 03:32:41;;;;;;;9.48;3.70;;;;;;;-0.43;100.00;100118.38;5079272;28;20409;-85
2022/04/10 03:35:08;;;;;;;7.30;3.30;;;;;;;-0.37;100.00;100123.69;5080678;28;20541;-85
2022/04/10 03:37:33;;;;;;;12.20;3.38;;;;;;;-0.38;100.00;100119.31;5079210;28;20111;-84
2022/04/10 03:39:58;;;;;;;11.02;3.72;;;;;;;-0.37;100.00;100126.31;5079108;28;20028;-85
2022/04/10 03:42:24;;;;;;;14.85;3.50;;;;;;;-0.29;100.00;100128.16;5079969;28;20024;-86
2022/04/10 03:44:50;;;;;;;8.32;2.97;;;;;;;-0.26;100.00;100130.81;5080001;28;20029;-86
2022/04/10 03:47:22;;;;;;;12.73;3.53;;;;;;;-0.43;100.00;100123.59;5080015;28;20047;-86
2022/04/10 03:49:50;;;;;;;14.37;3.20;;;;;;;-0.48;100.00;100131.44;5080249;28;20488;-84
2022/04/10 03:52:16;;;;;;;14.57;3.60;;;;;;;-0.43;100.00;100135.84;5080522;28;20024;-86
2022/04/10 03:54:41;;;;;;;12.95;2.85;;;;;;;-0.33;100.00;100134.25;5080319;28;20059;-84
2022/04/10 03:57:06;;;;;;;13.32;3.17;;;;;;;-0.44;100.00;100142.84;5078958;28;20446;-85
2022/04/10 03:59:32;;;;;;;10.95;3.58;;;;;;;-0.40;100.00;100144.66;5078909;28;20020;-84
2022/04/10 04:01:57;;;;;;;10.43;2.92;;;;;;;-0.30;100.00;100145.63;5079836;28;20020;-84
2022/04/10 04:04:23;;;;;;;14.45;4.85;;;;;;;-0.41;100.00;100145.50;5078812;28;20020;-83
2022/04/10 04:06:48;;;;;;;14.07;3.50;;;;;;;-0.45;100.00;100151.56;5080060;28;20032;-84
2022/04/10 04:09:14;;;;;;;13.95;3.25;;;;;;;-0.44;100.00;100158.59;5079695;28;20108;-84
2022/04/10 04:11:39;;;;;;;8.07;3.10;;;;;;;-0.39;100.00;100159.53;5084914;28;20386;-84
2022/04/10 04:14:05;;;;;;;8.70;3.95;;;;;;;-0.49;100.00;100166.38;5080790;28;20043;-85
2022/04/10 04:16:30;;;;;;;14.00;3.75;;;;;;;-0.49;100.00;100170.78;5076844;28;20396;-85
2022/04/10 04:18:56;;;;;;;10.93;3.40;;;;;;;-0.48;100.00;100169.88;5077051;28;20029;-84
2022/04/10 04:21:21;;;;;;;13.27;3.55;;;;;;;-0.48;100.00;100172.50;5076867;28;20454;-85
2022/04/10 04:23:48;;;;;;;13.80;3.50;;;;;;;-0.41;100.00;100169.09;5078639;28;20020;-84
2022/04/10 04:26:13;;;;;;;8.65;3.67;;;;;;;-0.52;100.00;100176.84;5078292;28;20394;-85
2022/04/10 04:28:39;;;;;;;9.52;3.20;;;;;;;-0.50;100.00;100169.88;5077130;28;20024;-85
2022/04/10 04:31:04;;;;;;;9.43;3.40;;;;;;;-0.41;100.00;100194.50;5076225;28;20028;-83
2022/04/10 04:33:29;;;;;;;16.30;4.20;;;;;;;-0.44;100.00;100184.84;5076331;28;20500;-85
2022/04/10 04:35:55;;;;;;;11.60;3.63;;;;;;;-0.52;100.00;100196.94;5075563;28;20504;-85
2022/04/10 04:38:20;;;;;;;9.07;3.88;;;;;;;-0.59;100.00;100195.97;5077076;28;20024;-85
2022/04/10 04:40:45;;;;;;;14.90;3.75;;;;;;;-0.50;100.00;100196.13;5076650;28;20024;-85
2022/04/10 04:43:11;;;;;;;9.35;3.90;;;;;;;-0.54;100.00;100199.53;5077486;28;20032;-85
2022/04/10 04:45:36;;;;;;;14.23;4.57;;;;;;;-0.59;100.00;100196.84;5077129;28;20580;-85
2022/04/10 04:48:01;;;;;;;14.13;3.80;;;;;;;-0.49;100.00;100207.50;5075167;28;20029;-83
2022/04/10 04:50:27;;;;;;;11.90;3.55;;;;;;;-0.53;100.00;100216.16;5074838;28;20024;-86
2022/04/10 04:52:52;;;;;;;13.20;3.67;;;;;;;-0.50;100.00;100211.84;5075113;28;20028;-86
2022/04/10 04:55:17;;;;;;;10.93;4.00;;;;;;;-0.53;100.00;100216.16;5076866;28;20049;-86
2022/04/10 04:57:43;;;;;;;9.02;3.83;;;;;;;-0.64;100.00;100219.50;5075274;28;20025;-86
2022/04/10 05:00:09;;;;;;;13.40;3.92;;;;;;;-0.54;100.00;100228.38;5074382;28;20382;-85
2022/04/10 05:02:34;;;;;;;16.40;4.50;;;;;;;-0.60;100.00;100234.44;5076635;28;20029;-86
2022/04/10 05:04:59;;;;;;;15.43;4.35;;;;;;;-0.53;100.00;100237.16;5076765;28;20544;-85
2022/04/10 05:07:25;;;;;;;9.63;4.10;;;;;;;-0.52;100.00;100245.06;5076238;28;20032;-86
2022/04/10 05:09:50;;;;;;;10.88;3.75;;;;;;;-0.68;100.00;100239.56;5078187;28;20491;-84
2022/04/10 05:12:16;;;;;;;12.73;4.03;;;;;;;-0.60;100.00;100237.06;5079180;28;20027;-84
2022/04/10 05:14:41;;;;;;;12.80;4.88;;;;;;;-0.54;100.00;100246.75;5079818;28;20028;-85
2022/04/10 05:17:06;;;;;;;9.05;4.55;;;;;;;-0.54;100.00;100235.41;5081390;28;20060;-84
2022/04/10 05:19:32;;;;;;;7.97;4.25;;;;;;;-0.64;100.00;100240.50;5076609;28;20486;-84
2022/04/10 05:21:57;;;;;;;11.75;4.75;;;;;;;-0.50;100.00;100247.69;5078045;28;20067;-85
2022/04/10 05:24:22;;;;;;;16.77;4.93;;;;;;;-0.59;100.00;100254.56;5077284;28;20029;-85
2022/04/10 05:26:48;;;;;;;13.30;4.22;;;;;;;-0.46;100.00;100249.50;5075547;28;20027;-84
2022/04/10 05:29:13;;;;;;;16.17;4.47;;;;;;;-0.47;100.00;100255.63;5079530;28;20099;-85
2022/04/10 05:31:38;;;;;;;8.70;4.32;;;;;;;-0.38;100.00;100258.38;5077971;28;20031;-84
2022/04/10 05:34:03;;;;;;;11.70;4.95;;;;;;;-0.35;100.00;100254.91;5079171;28;20024;-85
2022/04/10 05:36:29;;;;;;;13.25;3.95;;;;;;;-0.35;100.00;100257.53;5077878;28;20112;-85
2022/04/10 05:38:54;;;;;;;16.25;5.22;;;;;;;-0.39;100.00;100259.25;5079389;28;20419;-84
2022/04/10 05:41:19;;;;;;;13.18;4.53;;;;;;;-0.36;100.00;100256.63;5076257;28;20103;-84
2022/04/10 05:43:45;;;;;;;16.23;4.60;;;;;;;-0.24;100.00;100266.44;5076855;28;20028;-84
2022/04/10 05:46:10;;;;;;;12.73;4.50;;;;;;;-0.29;100.00;100267.25;5077684;28;20444;-86
2022/04/10 05:48:35;;;;;;;14.77;5.13;;;;;;;-0.29;100.00;100277.75;5077308;28;20024;-84
2022/04/10 05:51:00;;;;;;;17.00;6.65;;;;;;;-0.19;100.00;100278.75;5079441;28;20029;-85
2022/04/10 05:53:26;;;;;;;13.55;5.03;;;;;;;-0.12;100.00;100286.72;5076605;28;20119;-85
2022/04/10 05:55:51;;;;;;;12.05;4.55;;;;;;;-0.03;100.00;100286.00;5076777;28;20028;-85
2022/04/10 05:58:16;;;;;;;13.52;4.65;;;;;;;-0.07;100.00;100280.66;5075794;28;20024;-85
2022/04/10 06:00:42;;;;;;;11.38;4.22;;;;;;;0.03;100.00;100282.53;5075300;28;20024;-85
2022/04/10 06:03:07;;;;;;;17.65;4.40;;;;;;;0.15;100.00;100279.22;5077321;28;20024;-84
2022/04/10 06:05:32;;;;;;;10.20;4.03;;;;;;;0.10;100.00;100281.75;5074071;28;20509;-83
2022/04/10 06:07:58;;;;;;;11.82;4.47;;;;;;;0.17;100.00;100281.84;5074487;28;20118;-82
2022/04/10 06:10:23;;;;;;;11.27;3.92;;;;;;;0.21;100.00;100278.38;5074663;28;20025;-85
2022/04/10 06:12:49;;;;;;;13.10;3.78;;;;;;;0.24;100.00;100283.69;5074528;28;20032;-84
2022/04/10 06:15:21;;;;;;;16.95;4.32;;;;;;;0.33;100.00;100282.94;5074437;28;20106;-82
2022/04/10 06:17:47;;;;;;;11.00;4.47;;;;;;;0.43;100.00;100289.19;5074808;28;20473;-84
2022/04/10 06:20:12;;;;;;;9.57;3.88;;;;;;;0.50;100.00;100291.00;5073439;28;20031;-82
2022/04/10 06:22:37;;;;;;;14.30;3.90;;;;;;;0.58;100.00;100290.19;5073904;28;20060;-84
2022/04/10 06:25:03;;;;;;;19.55;4.18;;;;;;;0.54;100.00;100294.56;5072718;28;20020;-83
2022/04/10 06:27:28;;;;;;;12.63;3.92;;;;;;;0.65;100.00;100299.91;5072861;28;20477;-84
2022/04/10 06:29:54;;;;;;;12.00;3.88;;;;;;;0.69;100.00;100301.72;5072814;28;20024;-84
2022/04/10 06:32:19;;;;;;;10.80;3.45;;;;;;;0.79;100.00;100310.59;5072809;28;20020;-83
2022/04/10 06:34:44;;;;;;;17.63;4.68;;;;;;;0.70;100.00;100303.47;5072742;28;20025;-84
2022/04/10 06:37:10;;;;;;;11.48;4.00;;;;;;;0.70;100.00;100308.72;5074068;28;20154;-83
2022/04/10 06:39:35;;;;;;;13.05;4.15;;;;;;;0.84;100.00;100313.25;5072219;28;20020;-83
2022/04/10 06:42:01;;;;;;;13.32;4.68;;;;;;;0.95;100.00;100314.28;5073278;28;20032;-84
2022/04/10 06:44:26;;;;;;;14.43;6.00;;;;;;;1.13;100.00;100330.22;5077327;28;20031;-87
2022/04/10 06:46:51;;;;;;;9.23;4.22;;;;;;;1.32;100.00;100320.72;5075447;28;20032;-87
2022/04/10 06:49:18;;;;;;;15.65;4.32;;;;;;;1.41;100.00;100331.34;5078180;28;20032;-85
2022/04/10 06:51:43;;;;;;;10.55;3.83;;;;;;;1.48;100.00;100332.28;5077304;28;20024;-86
2022/04/10 06:54:08;;;;;;;8.63;3.67;;;;;;;1.55;100.00;100327.94;5075239;28;20135;-85
2022/04/10 06:56:34;;;;;;;11.80;3.72;;;;;;;1.66;100.00;100339.44;5076510;28;20031;-86
2022/04/10 06:58:59;;;;;;;9.75;2.88;;;;;;;1.76;100.00;100339.50;5077025;28;20059;-85
2022/04/10 07:01:25;;;;;;;10.40;2.78;;;;;;;1.80;100.00;100346.56;5077985;28;20046;-87
2022/04/10 07:03:50;;;;;;;10.43;3.45;;;;;;;1.88;100.00;100339.56;5078357;28;20417;-86
2022/04/10 07:06:18;;;;;;;7.38;2.75;;;;;;;1.77;100.00;100334.25;5075435;28;20096;-85
2022/04/10 07:08:43;;;;;;;10.68;2.95;;;;;;;1.77;100.00;100330.75;5076309;28;20029;-87
2022/04/10 07:11:08;;;;;;;11.65;2.65;;;;;;;1.74;100.00;100341.25;5078510;28;20389;-87
2022/04/10 07:13:33;;;;;;;13.70;3.03;;;;;;;1.71;100.00;100330.69;5078399;28;20118;-85
2022/04/10 07:15:59;;;;;;;17.15;3.15;;;;;;;1.69;100.00;100333.31;5076040;28;20096;-85
2022/04/10 07:18:25;;;;;;;9.75;2.75;;;;;;;1.60;100.00;100342.00;5074436;28;20031;-85
2022/04/10 07:20:50;;;;;;;8.48;2.97;;;;;;;1.66;100.00;100343.81;5075251;28;20028;-86
2022/04/10 07:26:03;;;;;;;9.25;3.30;;;;;;;1.93;100.00;100351.91;5075467;28;20066;-87
2022/04/10 07:28:28;;;;;;;12.82;2.72;;;;;;;1.95;100.00;100348.41;5075295;28;20534;-86
2022/04/10 07:30:54;;;;;;;15.00;3.60;;;;;;;2.05;100.00;100349.34;5075565;28;20044;-86
2022/04/10 07:33:19;;;;;;;7.57;3.00;;;;;;;2.30;100.00;100341.59;5072271;28;20024;-86
2022/04/10 07:35:45;;;;;;;9.88;3.63;;;;;;;2.41;100.00;100348.66;5074057;28;20024;-86
2022/04/10 07:38:10;;;;;;;11.95;3.20;;;;;;;2.46;100.00;100346.94;5073033;28;20020;-84
2022/04/10 07:40:38;;;;;;;7.15;3.10;;;;;;;2.62;100.00;100353.16;5072538;28;20025;-85
2022/04/10 07:43:04;;;;;;;13.60;3.95;;;;;;;2.79;100.00;100352.31;5072583;28;20021;-84
2022/04/10 07:48:13;;;;;;;11.02;3.75;;;;;;;2.88;100.00;100349.72;5075841;28;20039;-84
2022/04/10 07:50:38;;;;;;;12.45;3.92;;;;;;;3.00;100.00;100364.69;5074470;28;20029;-86
2022/04/10 07:53:04;;;;;;;9.40;3.47;;;;;;;2.96;100.00;100365.59;5077952;28;20024;-84
2022/04/10 07:55:29;;;;;;;14.35;3.60;;;;;;;3.09;100.00;100368.25;5077197;28;20466;-85
2022/04/10 07:57:55;;;;;;;13.07;3.85;;;;;;;3.15;100.00;100376.16;5079760;28;20086;-85
2022/04/10 08:00:22;;;;;;;8.10;2.90;;;;;;;3.33;100.00;100371.78;5077249;28;20059;-85
2022/04/10 08:02:48;;;;;;;9.77;3.25;;;;;;;3.44;100.00;100379.72;5079637;28;20021;-85
2022/04/10 08:05:18;;;;;;;8.48;2.80;;;;;;;3.52;100.00;100387.66;5079211;28;20027;-84
2022/04/10 08:07:44;;;;;;;10.25;3.10;;;;;;;3.65;100.00;100393.81;5078303;28;20056;-86
2022/04/10 08:10:10;;;;;;;6.80;2.85;;;;;;;3.65;100.00;100392.06;5078750;28;20497;-86
2022/04/10 08:12:36;;;;;;;9.02;2.78;;;;;;;3.57;100.00;100392.06;5077881;28;20024;-86
2022/04/10 08:15:08;;;;;;;12.27;2.72;;;;;;;3.66;100.00;100391.16;5077577;28;20031;-85
2022/04/10 08:17:33;;;;;;;8.55;2.83;;;;;;;3.70;100.00;100400.00;5078807;28;20028;-84
2022/04/10 08:19:59;;;;;;;8.70;2.97;;;;;;;3.76;100.00;100397.34;5078416;28;20082;-84
2022/04/10 08:22:27;;;;;;;6.35;2.08;;;;;;;3.71;100.00;100403.53;5078776;28;20107;-85
2022/04/10 08:24:53;;;;;;;8.30;2.28;;;;;;;3.83;100.00;100405.28;5080421;28;20050;-84
2022/04/10 08:27:19;;;;;;;8.25;2.33;;;;;;;3.77;100.00;100404.38;5077738;28;20024;-86
2022/04/10 08:29:44;;;;;;;8.40;2.60;;;;;;;3.75;100.00;100408.78;5077647;28;20025;-86
2022/04/10 08:32:09;;;;;;;11.93;2.30;;;;;;;3.62;100.00;100405.25;5077860;28;20025;-85
2022/04/10 08:34:35;;;;;;;6.90;2.75;;;;;;;3.62;100.00;100420.22;5077044;28;20025;-84
2022/04/10 08:37:05;;;;;;;9.90;2.58;;;;;;;3.76;100.00;100422.88;5075004;28;20038;-85
2022/04/10 08:39:31;;;;;;;7.63;2.10;;;;;;;3.86;100.00;100427.31;5075543;28;20025;-84
2022/04/10 08:42:01;;;;;;;9.02;2.60;;;;;;;3.95;100.00;100429.03;5076172;28;20025;-83
2022/04/10 08:44:27;;;;;;;8.85;2.10;;;;;;;3.75;100.00;100426.41;5076803;28;20021;-86
2022/04/10 08:46:52;;;;;;;6.40;1.50;;;;;;;3.90;100.00;100430.81;5077130;28;20046;-86
2022/04/10 08:49:19;;;;;;;8.82;2.17;;;;;;;3.63;100.00;100438.72;5076807;28;20032;-82
2022/04/10 08:51:45;;;;;;;7.15;2.50;;;;;;;3.61;100.00;100435.19;5075007;28;20020;-83
2022/04/10 08:54:13;;;;;;;9.32;2.65;;;;;;;3.73;100.00;100438.72;5075371;28;20021;-83
2022/04/10 08:56:38;;;;;;;7.75;2.25;;;;;;;3.88;100.00;100437.84;5075209;28;20016;-82
2022/04/10 08:59:04;;;;;;;5.07;2.00;;;;;;;3.84;100.00;100436.97;5076561;28;20024;-81
2022/04/10 09:01:29;;;;;;;7.45;1.80;;;;;;;3.94;100.00;100431.69;5076919;28;20465;-83
2022/04/10 09:03:54;;;;;;;5.75;1.75;;;;;;;3.96;100.00;100451.06;5074815;28;20027;-84
2022/04/10 09:06:20;;;;;;;7.47;2.03;;;;;;;4.13;100.00;100444.00;5076633;28;20052;-84
2022/04/10 09:08:46;;;;;;;7.93;1.70;;;;;;;4.17;100.00;100449.31;5077202;28;20493;-83
2022/04/10 09:11:11;;;;;;;5.30;1.80;;;;;;;4.44;100.00;100450.13;5075930;28;20031;-83
2022/04/10 09:13:46;;;;;;;6.43;1.70;;;;;;;4.44;100.00;100452.78;5076349;28;20414;-83
2022/04/10 09:16:17;;;;;;;5.95;1.42;;;;;;;4.31;96.96;100449.25;5077848;28;20032;-84
2022/04/10 09:19:00;;;;;;;4.68;1.30;;;;;;;4.43;97.80;100451.03;5076103;28;20028;-84
2022/04/10 09:21:33;;;;;;;4.70;1.60;;;;;;;4.39;98.32;100436.91;5079164;28;20066;-83
2022/04/10 09:24:01;;;;;;;5.63;2.28;;;;;;;4.50;99.38;100441.31;5074947;28;20021;-84
2022/04/10 09:26:41;;;;;;;4.53;1.80;;;;;;;4.48;100.00;100433.41;5076431;28;20028;-84
2022/04/10 09:29:07;;;;;;;8.38;2.10;;;;;;;4.31;100.00;100442.22;5075023;28;20082;-84
2022/04/10 09:31:34;;;;;;;6.60;2.33;;;;;;;4.35;99.93;100443.13;5075035;28;20465;-85
2022/04/10 09:34:09;;;;;;;8.07;2.35;;;;;;;4.42;99.92;100436.94;5076678;28;20028;-85
2022/04/10 09:36:44;;;;;;;7.18;2.30;;;;;;;4.68;100.00;100438.63;5075848;28;20020;-85
2022/04/10 09:39:13;;;;;;;7.78;2.75;;;;;;;5.48;100.00;100437.38;5076602;28;20377;-84
2022/04/10 09:41:40;;;;;;;5.70;2.28;;;;;;;6.02;93.91;100427.25;5075016;28;20069;-85
2022/04/10 09:44:17;;;;;;;8.02;1.92;;;;;;;5.79;91.58;100431.84;5074427;28;20024;-84
2022/04/10 09:46:43;;;;;;;7.90;2.45;;;;;;;5.73;91.36;100431.88;5075985;28;20061;-83
2022/04/10 09:49:13;;;;;;;7.78;1.95;;;;;;;5.64;91.14;100432.84;5076551;28;20094;-85
2022/04/10 09:51:57;;;;;;;7.95;1.80;;;;;;;5.06;92.47;100433.19;5074594;28;20031;-85
2022/04/10 09:54:22;;;;;;;;;;;;;;;5.09;97.20;100430.53;5076904;28;20020;-87
2022/04/10 09:56:53;;;;;;;10.17;2.27;;;;;;;5.10;94.15;100428.75;5074717;28;20019;-86
2022/04/10 09:59:26;;;;;;;5.35;1.73;;;;;;;5.12;90.25;100429.63;5074282;28;20626;-85
2022/04/10 10:01:53;;;;;;;4.20;1.40;;;;;;;5.18;89.10;100429.56;5075831;28;20080;-85
2022/04/10 10:04:19;;;;;;;3.63;1.40;;;;;;;5.31;88.26;100418.94;5074260;28;20032;-84
2022/04/10 10:06:46;;;;;;;3.35;1.77;;;;;;;5.08;90.99;100422.56;5073780;28;20024;-85
2022/04/10 10:09:12;;;;;;;4.63;1.58;;;;;;;4.96;89.19;100419.09;5075995;28;20028;-85
2022/04/10 10:11:38;;;;;;;8.75;1.80;;;;;;;5.00;87.21;100420.84;5074797;28;20026;-84
2022/04/10 10:14:03;;;;;;;6.05;1.30;;;;;;;4.86;88.70;100433.25;5074965;28;20024;-83
2022/04/10 10:16:29;;;;;;;3.55;1.50;;;;;;;4.92;90.72;100435.91;5074006;28;20016;-85
2022/04/10 10:18:55;;;;;;;7.18;1.60;;;;;;;4.57;91.16;100450.97;5074113;28;20031;-86
2022/04/10 10:21:20;;;;;;;6.78;2.25;;;;;;;4.10;100.00;100456.34;5075980;28;20021;-85
2022/04/10 10:23:50;;;;;;;5.82;1.90;;;;;;;3.20;100.00;100460.59;5074115;28;20027;-86
2022/04/10 10:26:48;;;;;;;8.23;2.33;;;;;;;2.40;100.00;100478.66;5074747;28;20021;-85
2022/04/10 10:29:25;;;;;;;3.15;1.00;;;;;;;1.68;100.00;100476.34;5077657;28;20028;-88
2022/04/10 10:32:29;;;;;;;4.47;1.00;;;;;;;1.55;100.00;100483.22;5073800;28;20082;-87
2022/04/10 10:34:55;;;;;;;3.22;1.42;;;;;;;1.72;100.00;100474.63;5079745;28;20043;-88
2022/04/10 10:37:29;;;;;;;2.42;1.25;;;;;;;1.88;100.00;100471.25;5072789;28;20464;-87
2022/04/10 10:39:54;;;;;;;4.88;1.35;;;;;;;2.10;100.00;100458.28;5073280;28;20020;-88
2022/04/10 10:42:22;;;;;;;2.63;1.15;;;;;;;2.42;100.00;100455.88;5072363;28;20020;-89
2022/04/10 10:44:49;;;;;;;3.58;1.20;;;;;;;3.13;100.00;100449.16;5072564;28;20024;-88
2022/04/10 10:47:17;;;;;;;2.90;1.27;;;;;;;3.88;100.00;100444.03;5073967;28;20027;-88
2022/04/10 10:49:44;;;;;;;4.07;1.30;;;;;;;4.34;100.00;100444.88;5073774;28;20486;-87
2022/04/10 10:52:10;;;;;;;4.15;1.42;;;;;;;4.94;100.00;100447.34;5072744;28;20385;-85
2022/04/10 10:54:43;;;;;;;4.85;1.63;;;;;;;5.12;100.00;100446.41;5073794;28;20020;-88
2022/04/10 10:57:27;;;;;;;2.83;1.67;;;;;;;5.38;100.00;100447.13;5072713;28;20024;-85
2022/04/10 11:00:04;;;;;;;7.30;1.70;;;;;;;5.60;100.00;100441.69;5073975;28;20029;-86
2022/04/10 11:02:35;;;;;;;6.40;1.95;;;;;;;6.02;100.00;100437.84;5072328;28;20074;-88
2022/04/10 11:05:05;;;;;;;3.05;1.75;;;;;;;6.55;100.00;100431.16;5073017;28;20021;-89
2022/04/10 11:07:30;;;;;;;6.07;2.22;;;;;;;6.60;100.00;100434.66;5074045;28;20032;-87
2022/04/10 11:09:58;;;;;;;6.03;1.65;;;;;;;6.69;94.19;100436.34;5074052;28;20021;-87
2022/04/10 11:12:33;;;;;;;5.45;1.60;;;;;;;6.88;89.21;100436.13;5073584;28;20474;-85
2022/04/10 11:15:03;;;;;;;5.88;1.60;;;;;;;6.54;88.07;100448.00;5072351;28;20027;-87
2022/04/10 11:17:31;;;;;;;4.93;1.73;;;;;;;6.12;88.16;100443.97;5074179;28;20119;-87
2022/04/10 11:19:59;;;;;;;6.30;1.77;;;;;;;6.55;92.75;100437.34;5073740;28;20023;-85
2022/04/10 11:22:31;;;;;;;6.82;1.95;;;;;;;6.62;87.84;100440.84;5073515;28;20021;-88
2022/04/10 11:25:05;;;;;;;4.28;1.50;;;;;;;7.33;91.20;100426.69;5076006;28;20037;-85